Folegandros, Greece
Current Conditions -  °F | °C
As of 8:50 AM on Thursday 29 Jan 2015 (Local Time) from LGPA Reporting Station
Broken Clouds Broken Clouds  
Wind Chill: 52°   Ceiling: 2500
Heat Index: 52°   Visibility: 6mi
Dew Point: 50°   Wind: 3mph
Humidity: 94%   Direction: NA
Pressure: 29.68"   Gusts: NA
Location:  36.65°N, 24.87°E
Report Text: LGPA 290550Z VRB03KT 9999 FEW015 FEW020TCU BKN025 11/10 Q1005
Loading
Personal Weather Stations






























Interactive Weather Map New forecast layout! Learn more

10-Day Weather Forecast

Advertisements
Track Severe Weather on mobile